Time;durP1;ratioP1;P1;durP2;ratioP2;P2;SDS_P1;SDS_P2;PMS_P1;PMS_P2;Temp;Humidity;BMP_temperature;BMP_pressure;BME280_temperature;BME280_humidity;BME280_pressure;Samples;Min_cycle;Max_cycle;Signal;HPM_P1;HPM_P2
2022/10/07 00:00:54;;;;;;;0.50;0.50;;;;;;;9.67;100.00;99297.47;4994877;28;20125;-84
2022/10/07 00:03:24;;;;;;;0.50;0.50;;;;;;;9.72;100.00;99292.22;4992492;28;20419;-83
2022/10/07 00:06:03;;;;;;;0.50;0.50;;;;;;;9.70;100.00;99302.44;4982935;28;20562;-83
2022/10/07 00:08:30;;;;;;;0.50;0.50;;;;;;;9.67;100.00;99300.19;4982450;28;20051;-84
2022/10/07 00:11:03;;;;;;;0.50;0.50;;;;;;;9.69;100.00;99293.50;4986208;28;20060;-83
2022/10/07 00:13:31;;;;;;;0.50;0.50;;;;;;;9.68;100.00;99294.56;4984464;28;20158;-84
2022/10/07 00:16:06;;;;;;;0.50;0.50;;;;;;;9.65;100.00;99303.13;4984535;28;20050;-83
2022/10/07 00:18:34;;;;;;;0.50;0.50;;;;;;;9.57;100.00;99300.78;4991727;28;20369;-83
2022/10/07 00:21:06;;;;;;;0.50;0.50;;;;;;;9.48;100.00;99305.66;4991380;28;20506;-84
2022/10/07 00:23:34;;;;;;;0.50;0.50;;;;;;;9.44;100.00;99307.16;4976955;28;20421;-84
2022/10/07 00:26:02;;;;;;;0.50;0.50;;;;;;;9.32;100.00;99309.00;4975783;28;20120;-83
2022/10/07 00:28:30;;;;;;;0.50;0.50;;;;;;;9.27;100.00;99315.06;4992929;28;20065;-84
2022/10/07 00:31:09;;;;;;;0.50;0.50;;;;;;;9.18;100.00;99318.31;4983687;28;20394;-83
2022/10/07 00:33:38;;;;;;;0.50;0.50;;;;;;;9.15;100.00;99321.47;5000489;28;20488;-84
2022/10/07 00:36:08;;;;;;;0.50;0.50;;;;;;;9.11;100.00;99321.91;4993875;28;20058;-83
2022/10/07 00:38:35;;;;;;;0.50;0.50;;;;;;;9.08;100.00;99325.03;4991720;28;20406;-84
2022/10/07 00:41:02;;;;;;;0.50;0.50;;;;;;;9.03;100.00;99322.22;4993750;28;20050;-84
2022/10/07 00:43:31;;;;;;;0.50;0.50;;;;;;;9.01;100.00;99318.91;4988942;28;20054;-84
2022/10/07 00:46:06;;;;;;;0.50;0.50;;;;;;;9.07;100.00;99320.72;4993452;28;20418;-86
2022/10/07 00:48:35;;;;;;;0.50;0.50;;;;;;;9.08;100.00;99319.66;4992972;28;20101;-85
2022/10/07 00:51:02;;;;;;;0.50;0.50;;;;;;;9.05;100.00;99340.84;4950140;28;20428;-83
2022/10/07 00:53:32;;;;;;;0.50;0.50;;;;;;;8.96;100.00;99332.22;4984883;28;20043;-85
2022/10/07 00:56:03;;;;;;;0.50;0.50;;;;;;;8.93;100.00;99337.25;4965052;28;20047;-85
2022/10/07 00:58:31;;;;;;;0.50;0.50;;;;;;;8.87;100.00;99330.91;4990654;28;20358;-85
2022/10/07 01:00:59;;;;;;;0.50;0.50;;;;;;;8.84;100.00;99334.88;4993043;28;20141;-84
2022/10/07 01:03:27;;;;;;;0.50;0.50;;;;;;;8.86;100.00;99348.09;4993060;28;20092;-85
2022/10/07 01:05:54;;;;;;;0.50;0.50;;;;;;;8.88;100.00;99346.00;4993275;28;20066;-83
2022/10/07 01:08:22;;;;;;;0.50;0.50;;;;;;;8.92;100.00;99331.06;4993346;28;20054;-84
2022/10/07 01:11:32;;;;;;;0.50;0.50;;;;;;;8.89;100.00;99344.97;4976422;28;20141;-84
2022/10/07 01:14:06;;;;;;;0.50;0.50;;;;;;;8.89;100.00;99347.66;4968664;28;20052;-84
2022/10/07 01:16:49;;;;;;;0.60;0.60;;;;;;;8.92;100.00;99347.22;5006748;28;20104;-83
2022/10/07 01:19:43;;;;;;;0.50;0.50;;;;;;;8.92;100.00;99355.28;4994693;28;20049;-82
2022/10/07 01:22:45;;;;;;;0.50;0.50;;;;;;;8.97;100.00;99355.44;4954813;28;20047;-84
2022/10/07 01:25:27;;;;;;;0.60;0.60;;;;;;;8.97;100.00;99343.84;4938343;28;20050;-83
2022/10/07 01:27:59;;;;;;;0.50;0.50;;;;;;;8.95;100.00;99351.31;4954842;28;20057;-83
2022/10/07 01:30:30;;;;;;;0.50;0.50;;;;;;;8.89;100.00;99359.25;4923642;28;20478;-83
2022/10/07 01:33:04;;;;;;;0.50;0.50;;;;;;;8.81;100.00;99364.09;4954977;28;20086;-83
2022/10/07 01:35:34;;;;;;;0.50;0.50;;;;;;;8.75;100.00;99370.38;4954755;28;20050;-83
2022/10/07 01:38:04;;;;;;;0.50;0.50;;;;;;;8.72;100.00;99368.16;4971707;28;20059;-84
2022/10/07 01:40:53;;;;;;;0.50;0.50;;;;;;;8.70;100.00;99375.59;4975652;28;20406;-84
2022/10/07 01:43:21;;;;;;;0.50;0.50;;;;;;;8.63;100.00;99381.06;4952613;28;20058;-83
2022/10/07 01:45:50;;;;;;;0.50;0.50;;;;;;;8.65;100.00;99390.53;4946657;28;20060;-85
2022/10/07 01:48:17;;;;;;;0.50;0.50;;;;;;;8.72;100.00;99387.78;4928922;29;20097;-83
2022/10/07 01:50:46;;;;;;;0.50;0.50;;;;;;;8.70;100.00;99386.38;4950207;28;20058;-84
2022/10/07 01:53:31;;;;;;;0.50;0.50;;;;;;;8.60;100.00;99393.06;4950138;29;20057;-85
2022/10/07 01:56:30;;;;;;;;;;;;;;;8.51;100.00;99390.88;4951229;29;20059;-81
2022/10/07 01:59:24;;;;;;;0.50;0.50;;;;;;;8.56;100.00;99389.22;4912892;29;19926;-80
2022/10/07 02:02:02;;;;;;;0.50;0.50;;;;;;;8.53;100.00;99399.56;4951327;29;20130;-84
2022/10/07 02:04:58;;;;;;;0.50;0.50;;;;;;;8.46;100.00;99402.34;4951302;29;20083;-83
2022/10/07 02:07:50;;;;;;;0.50;0.50;;;;;;;8.41;100.00;99399.50;4951483;29;20110;-83
2022/10/07 02:10:25;;;;;;;0.50;0.50;;;;;;;8.41;100.00;99405.69;4935206;29;20142;-83
2022/10/07 02:13:12;;;;;;;0.50;0.50;;;;;;;8.41;100.00;99410.25;4950936;28;20106;-82
2022/10/07 02:16:24;;;;;;;0.50;0.50;;;;;;;8.42;100.00;99411.88;4951342;29;20062;-83
2022/10/07 02:18:52;;;;;;;0.50;0.50;;;;;;;8.42;100.00;99401.13;4909914;29;20075;-83
2022/10/07 02:21:24;;;;;;;0.50;0.50;;;;;;;8.49;100.00;99409.97;4893952;29;20056;-83
2022/10/07 02:23:53;;;;;;;0.50;0.50;;;;;;;8.61;100.00;99416.25;4909912;29;20139;-84
2022/10/07 02:26:22;;;;;;;0.50;0.50;;;;;;;8.68;100.00;99422.41;4862734;29;20057;-83
2022/10/07 02:28:51;;;;;;;0.50;0.50;;;;;;;8.65;100.00;99409.38;4878565;29;20120;-83
2022/10/07 02:31:21;;;;;;;0.50;0.50;;;;;;;8.58;100.00;99415.88;4909846;29;20413;-83
2022/10/07 02:33:52;;;;;;;0.57;0.57;;;;;;;8.54;100.00;99415.50;4900380;29;20056;-83
2022/10/07 02:36:24;;;;;;;0.50;0.50;;;;;;;8.52;100.00;99422.97;4931677;29;20547;-83
2022/10/07 02:38:52;;;;;;;0.50;0.50;;;;;;;8.53;100.00;99427.28;4915955;29;20056;-83
2022/10/07 02:41:42;;;;;;;0.50;0.50;;;;;;;8.64;100.00;99434.66;4931497;29;20059;-83
2022/10/07 02:44:19;;;;;;;0.60;0.60;;;;;;;8.65;100.00;99430.09;4947750;29;20126;-83
2022/10/07 02:46:57;;;;;;;0.60;0.60;;;;;;;8.71;100.00;99428.38;4931782;29;20062;-83
2022/10/07 02:49:25;;;;;;;0.50;0.50;;;;;;;8.72;100.00;99432.72;4931412;29;20134;-83
2022/10/07 02:51:59;;;;;;;0.50;0.50;;;;;;;8.72;100.00;99427.34;4931991;29;20144;-82
2022/10/07 02:54:32;;;;;;;0.50;0.50;;;;;;;8.71;100.00;99428.38;4954034;28;20085;-81
2022/10/07 02:56:59;;;;;;;0.50;0.50;;;;;;;8.74;100.00;99425.25;4990657;28;20603;-83
2022/10/07 02:59:30;;;;;;;0.50;0.50;;;;;;;8.78;100.00;99423.75;4990420;28;20153;-83
2022/10/07 03:01:59;;;;;;;0.50;0.50;;;;;;;8.83;100.00;99423.91;4974413;28;20412;-83
2022/10/07 03:04:26;;;;;;;0.50;0.50;;;;;;;8.83;100.00;99434.66;4990334;28;20054;-82
2022/10/07 03:06:54;;;;;;;0.50;0.50;;;;;;;8.83;100.00;99435.50;4990597;28;20085;-83
2022/10/07 03:09:23;;;;;;;0.50;0.50;;;;;;;8.80;100.00;99427.06;4974255;28;20054;-84
2022/10/07 03:11:50;;;;;;;0.50;0.50;;;;;;;8.77;100.00;99427.50;4974237;28;20085;-83
2022/10/07 03:14:17;;;;;;;0.50;0.50;;;;;;;8.67;100.00;99431.50;4991335;28;20050;-83
2022/10/07 03:16:45;;;;;;;0.50;0.50;;;;;;;8.64;100.00;99437.34;4990240;28;20053;-83
2022/10/07 03:19:12;;;;;;;0.50;0.50;;;;;;;8.59;100.00;99439.88;4991360;28;20054;-83
2022/10/07 03:21:46;;;;;;;0.50;0.50;;;;;;;8.46;100.00;99440.81;4991365;28;20066;-82
2022/10/07 03:24:13;;;;;;;0.50;0.50;;;;;;;8.40;100.00;99441.69;4991661;28;20102;-84
2022/10/07 03:26:44;;;;;;;0.50;0.50;;;;;;;8.44;100.00;99437.50;4977773;28;20057;-83
2022/10/07 03:29:12;;;;;;;0.50;0.50;;;;;;;8.43;100.00;99435.03;4995065;28;20505;-83
2022/10/07 03:31:41;;;;;;;0.50;0.50;;;;;;;8.37;100.00;99446.66;4993864;28;20042;-84
2022/10/07 03:34:08;;;;;;;0.50;0.50;;;;;;;8.37;100.00;99457.41;4995190;28;20125;-83
2022/10/07 03:36:36;;;;;;;0.50;0.50;;;;;;;8.36;100.00;99453.09;4977482;28;20050;-84
2022/10/07 03:39:09;;;;;;;0.50;0.50;;;;;;;8.30;100.00;99456.63;4977888;28;20050;-83
2022/10/07 03:41:36;;;;;;;0.50;0.50;;;;;;;8.24;100.00;99453.78;4993920;28;20081;-83
2022/10/07 03:44:04;;;;;;;0.50;0.50;;;;;;;8.17;100.00;99461.06;4961282;28;20141;-83
2022/10/07 03:46:32;;;;;;;0.50;0.50;;;;;;;8.11;100.00;99458.44;4994904;28;20077;-82
2022/10/07 03:49:00;;;;;;;0.50;0.50;;;;;;;8.14;100.00;99471.44;4977265;28;20070;-83
2022/10/07 03:51:28;;;;;;;0.50;0.50;;;;;;;8.22;100.00;99466.59;4976906;28;20046;-83
2022/10/07 03:53:56;;;;;;;0.50;0.50;;;;;;;8.16;100.00;99467.50;4993359;28;20046;-85
2022/10/07 03:56:28;;;;;;;0.50;0.50;;;;;;;8.14;100.00;99474.13;4960226;28;20505;-84
2022/10/07 03:58:55;;;;;;;0.50;0.50;;;;;;;8.11;100.00;99474.56;4966572;28;20583;-81
2022/10/07 04:01:23;;;;;;;0.50;0.50;;;;;;;8.06;100.00;99467.16;4981669;28;20046;-85
2022/10/07 04:03:55;;;;;;;0.50;0.50;;;;;;;7.99;100.00;99464.50;4989455;28;20046;-83
2022/10/07 04:06:24;;;;;;;0.50;0.50;;;;;;;8.00;100.00;99484.97;4976703;28;20054;-84
2022/10/07 04:08:52;;;;;;;0.60;0.60;;;;;;;7.98;100.00;99472.78;4976848;28;20157;-84
2022/10/07 04:11:20;;;;;;;0.50;0.50;;;;;;;7.98;100.00;99484.34;4990553;28;20050;-84
2022/10/07 04:13:50;;;;;;;0.50;0.50;;;;;;;7.99;100.00;99485.16;4989350;28;20082;-82
2022/10/07 04:16:18;;;;;;;0.60;0.60;;;;;;;8.01;100.00;99491.97;4993691;28;20501;-82
2022/10/07 04:18:46;;;;;;;0.60;0.60;;;;;;;8.06;100.00;99501.28;4992224;28;20042;-84
2022/10/07 04:21:14;;;;;;;0.60;0.60;;;;;;;8.07;100.00;99509.09;4960196;28;20141;-84
2022/10/07 04:23:41;;;;;;;0.60;0.60;;;;;;;8.12;100.00;99511.97;4976557;28;20137;-85
2022/10/07 04:26:10;;;;;;;0.60;0.60;;;;;;;8.09;100.00;99515.09;4993051;28;20426;-84
2022/10/07 04:28:44;;;;;;;0.50;0.50;;;;;;;8.09;100.00;99514.28;4988174;28;20057;-85
2022/10/07 04:31:16;;;;;;;0.50;0.50;;;;;;;8.15;100.00;99518.78;4990620;28;20097;-83
2022/10/07 04:33:46;;;;;;;0.60;0.60;;;;;;;8.16;100.00;99515.88;4962807;28;20050;-82
2022/10/07 04:36:19;;;;;;;0.50;0.50;;;;;;;8.13;100.00;99512.81;4957232;28;20051;-82
2022/10/07 04:38:51;;;;;;;0.50;0.50;;;;;;;8.11;100.00;99522.97;4973152;28;20138;-84
2022/10/07 04:41:24;;;;;;;0.60;0.60;;;;;;;8.19;100.00;99520.00;4977411;28;20058;-86
2022/10/07 04:43:53;;;;;;;0.52;0.52;;;;;;;8.19;100.00;99533.44;4932453;28;20058;-84
2022/10/07 04:46:27;;;;;;;0.60;0.60;;;;;;;8.24;100.00;99536.31;4973844;28;20457;-86
2022/10/07 04:49:03;;;;;;;0.60;0.60;;;;;;;8.33;100.00;99542.25;4988329;28;20118;-85
2022/10/07 04:51:31;;;;;;;0.55;0.55;;;;;;;8.33;100.00;99531.50;4988176;28;20168;-85
2022/10/07 04:53:59;;;;;;;0.60;0.60;;;;;;;8.32;100.00;99537.91;4990167;28;20042;-84
2022/10/07 04:56:36;;;;;;;0.60;0.60;;;;;;;8.35;100.00;99540.16;4989212;28;20055;-85
2022/10/07 04:59:06;;;;;;;0.60;0.60;;;;;;;8.39;100.00;99536.88;4971781;28;20042;-86
2022/10/07 05:01:38;;;;;;;0.60;0.60;;;;;;;8.40;100.00;99545.75;4984784;28;20129;-86
2022/10/07 05:04:07;;;;;;;0.60;0.60;;;;;;;8.46;99.76;99548.41;4954536;28;20506;-85
2022/10/07 05:06:34;;;;;;;0.50;0.50;;;;;;;8.52;99.30;99557.47;4952625;28;20058;-84
2022/10/07 05:09:02;;;;;;;0.60;0.60;;;;;;;8.64;98.89;99554.91;4954280;28;20047;-84
2022/10/07 05:11:33;;;;;;;0.60;0.60;;;;;;;8.90;98.02;99553.88;4970445;28;20060;-84
2022/10/07 05:14:07;;;;;;;0.68;0.68;;;;;;;9.18;95.96;99560.66;4973100;28;20054;-84
2022/10/07 05:16:35;;;;;;;0.60;0.60;;;;;;;9.27;94.43;99570.94;4972309;28;20053;-85
2022/10/07 05:19:04;;;;;;;0.60;0.60;;;;;;;9.22;93.61;99561.88;4987967;28;20061;-86
2022/10/07 05:21:32;;;;;;;0.50;0.50;;;;;;;9.29;93.53;99571.53;4974911;28;20489;-81
2022/10/07 05:24:00;;;;;;;0.50;0.50;;;;;;;9.37;93.24;99575.81;4982654;28;20098;-83
2022/10/07 05:26:33;;;;;;;0.50;0.50;;;;;;;9.44;92.87;99565.78;4960001;28;20058;-83
2022/10/07 05:29:02;;;;;;;0.60;0.60;;;;;;;9.51;92.15;99571.91;4956695;28;20051;-82
2022/10/07 05:31:36;;;;;;;0.60;0.60;;;;;;;9.59;91.35;99575.38;4972170;28;20568;-83
2022/10/07 05:34:04;;;;;;;0.50;0.50;;;;;;;9.63;91.28;99582.78;4972604;28;20058;-83
2022/10/07 05:36:32;;;;;;;0.50;0.50;;;;;;;9.64;90.38;99586.31;4971992;28;20060;-83
2022/10/07 05:39:04;;;;;;;0.50;0.50;;;;;;;9.59;90.16;99588.84;4972177;28;20510;-83
2022/10/07 05:41:40;;;;;;;0.57;0.57;;;;;;;9.46;90.52;99589.81;4972009;28;20465;-83
2022/10/07 05:44:16;;;;;;;0.60;0.60;;;;;;;9.42;90.90;99602.91;4957390;28;20055;-83
2022/10/07 05:46:45;;;;;;;0.50;0.50;;;;;;;9.49;90.57;99598.25;4971578;28;20066;-83
2022/10/07 05:49:14;;;;;;;0.50;0.50;;;;;;;9.57;90.24;99588.25;4971968;28;20448;-83
2022/10/07 05:51:41;;;;;;;0.50;0.50;;;;;;;9.60;89.46;99601.28;4956129;28;20078;-83
2022/10/07 05:54:08;;;;;;;0.50;0.50;;;;;;;9.53;89.18;99595.97;4956251;28;20050;-84
2022/10/07 05:56:40;;;;;;;0.60;0.60;;;;;;;9.72;88.33;99605.72;4956185;28;20085;-83
2022/10/07 05:59:07;;;;;;;0.50;0.50;;;;;;;9.63;87.76;99620.53;4972133;28;20054;-82
2022/10/07 06:01:36;;;;;;;0.60;0.60;;;;;;;9.70;88.05;99621.28;4971939;28;20055;-82
2022/10/07 06:04:10;;;;;;;0.52;0.52;;;;;;;9.67;87.47;99605.56;4972108;28;20134;-84
2022/10/07 06:06:40;;;;;;;0.52;0.52;;;;;;;9.62;87.44;99604.56;4971536;28;20414;-84
2022/10/07 06:14:47;;;;;;;0.60;0.60;;;;;;;9.89;85.60;99623.97;4971518;28;20061;-85
2022/10/07 06:17:15;;;;;;;0.60;0.60;;;;;;;9.91;85.17;99630.78;4971591;28;20042;-82
2022/10/07 06:19:45;;;;;;;0.60;0.60;;;;;;;9.79;85.07;99627.19;4971443;28;20420;-82
2022/10/07 06:22:17;;;;;;;0.55;0.55;;;;;;;9.82;84.67;99628.59;4971786;28;20062;-83
2022/10/07 06:24:44;;;;;;;0.60;0.60;;;;;;;9.96;84.62;99628.25;4971728;28;20479;-83
2022/10/07 06:27:11;;;;;;;0.50;0.50;;;;;;;10.12;83.55;99639.47;4971572;28;20062;-83
2022/10/07 06:29:39;;;;;;;0.60;0.60;;;;;;;10.26;82.74;99638.25;4971634;28;20051;-83
2022/10/07 06:32:07;;;;;;;0.60;0.60;;;;;;;10.32;81.57;99640.06;4972691;28;20051;-83
2022/10/07 06:34:34;;;;;;;0.60;0.60;;;;;;;10.45;80.70;99647.16;4971398;28;20463;-83
2022/10/07 06:37:01;;;;;;;0.60;0.60;;;;;;;10.49;79.98;99659.16;4971204;28;20046;-83
2022/10/07 06:39:29;;;;;;;0.50;0.50;;;;;;;10.58;79.36;99665.91;4971161;28;20568;-83
2022/10/07 06:41:58;;;;;;;0.60;0.60;;;;;;;10.54;79.56;99678.19;4971280;28;20055;-82
2022/10/07 06:44:42;;;;;;;0.60;0.60;;;;;;;10.70;77.86;99673.22;4971308;28;20047;-82
2022/10/07 06:47:14;;;;;;;0.50;0.50;;;;;;;10.72;77.58;99663.00;4971249;28;20483;-82
2022/10/07 06:49:44;;;;;;;0.60;0.60;;;;;;;10.78;77.40;99665.59;4954596;28;20514;-83
2022/10/07 06:52:11;;;;;;;0.50;0.50;;;;;;;10.79;76.36;99671.84;4970926;28;20046;-83
2022/10/07 06:54:40;;;;;;;0.60;0.60;;;;;;;10.82;75.62;99684.88;4955487;28;20046;-83
2022/10/07 06:57:07;;;;;;;0.50;0.50;;;;;;;10.83;76.01;99681.13;4971112;28;20566;-83
2022/10/07 06:59:56;;;;;;;0.50;0.50;;;;;;;10.82;75.35;99688.41;4957690;28;20054;-82
2022/10/07 07:02:24;;;;;;;0.70;0.70;;;;;;;10.99;74.43;99702.09;4971049;28;20113;-84
2022/10/07 07:04:54;;;;;;;0.70;0.70;;;;;;;11.14;73.42;99685.44;4972324;28;20145;-83
2022/10/07 07:07:25;;;;;;;0.70;0.70;;;;;;;11.28;72.93;99694.16;4955518;28;20085;-83
2022/10/07 07:09:52;;;;;;;0.73;0.73;;;;;;;11.45;71.89;99700.53;4954665;28;20070;-84
2022/10/07 07:12:24;;;;;;;0.52;0.52;;;;;;;11.49;71.21;99696.31;4970739;28;20051;-83
2022/10/07 07:14:54;;;;;;;0.60;0.60;;;;;;;11.21;71.30;99704.25;4971079;28;20085;-82
2022/10/07 07:17:21;;;;;;;0.50;0.50;;;;;;;11.00;72.28;99721.81;4955389;28;20047;-84
2022/10/07 07:19:48;;;;;;;0.60;0.60;;;;;;;10.98;73.05;99724.72;4972008;28;20051;-82
2022/10/07 07:22:16;;;;;;;0.60;0.60;;;;;;;10.99;72.65;99725.56;4955354;28;20081;-83
2022/10/07 07:24:43;;;;;;;0.60;0.60;;;;;;;11.07;71.98;99711.72;4970924;28;20055;-83
2022/10/07 07:27:11;;;;;;;0.60;0.60;;;;;;;11.05;71.47;99724.66;4988771;28;20054;-83
2022/10/07 07:29:38;;;;;;;0.60;0.60;;;;;;;11.00;71.83;99735.31;4973692;28;20177;-83
2022/10/07 07:32:07;;;;;;;0.60;0.60;;;;;;;10.97;71.83;99731.19;4985544;28;20480;-84
2022/10/07 07:34:37;;;;;;;0.60;0.60;;;;;;;10.86;71.64;99748.16;4964712;28;20046;-84
2022/10/07 07:37:07;;;;;;;0.60;0.60;;;;;;;10.75;71.69;99738.97;4986427;28;20505;-82
2022/10/07 07:39:41;;;;;;;0.60;0.60;;;;;;;10.55;72.91;99733.81;4973348;28;20405;-83
2022/10/07 07:42:12;;;;;;;0.60;0.60;;;;;;;10.59;72.82;99737.72;4973900;28;20064;-83
2022/10/07 07:44:43;;;;;;;0.50;0.50;;;;;;;10.50;72.95;99738.25;4958649;28;20108;-83
2022/10/07 07:47:15;;;;;;;0.57;0.57;;;;;;;10.49;72.92;99737.44;4973389;28;20177;-83
2022/10/07 07:49:44;;;;;;;0.57;0.57;;;;;;;10.49;73.49;99744.69;4986597;28;20063;-83
2022/10/07 07:52:19;;;;;;;0.60;0.60;;;;;;;10.56;72.94;99743.56;4956155;28;20436;-83
2022/10/07 07:54:50;;;;;;;0.52;0.52;;;;;;;10.57;72.84;99755.19;4971905;28;20512;-83
2022/10/07 07:57:18;;;;;;;0.50;0.50;;;;;;;10.54;72.74;99739.44;4979156;28;20144;-82
2022/10/07 07:59:48;;;;;;;0.57;0.57;;;;;;;10.55;72.70;99746.47;4974811;28;20525;-83
2022/10/07 08:02:17;;;;;;;0.50;0.50;;;;;;;10.56;72.55;99723.88;4959310;28;20050;-85
2022/10/07 08:04:50;;;;;;;0.60;0.60;;;;;;;10.66;72.31;99743.03;4989608;28;20105;-82
2022/10/07 08:07:17;;;;;;;0.50;0.50;;;;;;;10.62;72.19;99739.13;4989628;28;20050;-83
2022/10/07 08:09:46;;;;;;;0.60;0.60;;;;;;;10.72;72.40;99758.31;4973488;28;20065;-84
2022/10/07 08:12:13;;;;;;;0.60;0.60;;;;;;;10.76;72.34;99759.53;4993627;28;20264;-83
2022/10/07 08:14:44;;;;;;;0.60;0.60;;;;;;;10.78;71.91;99753.88;4974670;28;20176;-86
2022/10/07 08:17:12;;;;;;;0.50;0.50;;;;;;;10.68;71.66;99732.81;4967114;28;20501;-83
2022/10/07 08:19:41;;;;;;;0.60;0.60;;;;;;;10.79;71.49;99761.75;4973408;28;20058;-83
2022/10/07 08:22:10;;;;;;;0.60;0.60;;;;;;;10.80;70.79;99759.88;4960824;28;20509;-84
2022/10/07 08:24:38;;;;;;;0.50;0.50;;;;;;;10.87;70.82;99757.09;4976703;28;20065;-83
2022/10/07 08:27:05;;;;;;;0.60;0.60;;;;;;;10.88;70.26;99767.66;4994275;28;20597;-85
2022/10/07 08:29:34;;;;;;;0.60;0.60;;;;;;;11.02;70.03;99768.31;4993859;28;20054;-86
2022/10/07 08:32:01;;;;;;;0.50;0.50;;;;;;;11.18;69.92;99775.78;4976856;28;20065;-84
2022/10/07 08:34:29;;;;;;;0.57;0.57;;;;;;;11.04;69.99;99769.75;4993152;28;20086;-84
2022/10/07 08:36:56;;;;;;;0.60;0.60;;;;;;;11.01;70.33;99781.00;4993977;28;20042;-83
2022/10/07 08:39:25;;;;;;;0.60;0.60;;;;;;;10.92;70.03;99778.84;4993094;28;20050;-84
2022/10/07 08:42:07;;;;;;;0.60;0.60;;;;;;;10.93;70.37;99777.78;4976599;28;20116;-84
2022/10/07 08:44:40;;;;;;;0.60;0.60;;;;;;;10.93;70.36;99765.09;4976834;28;20124;-84
2022/10/07 08:47:29;;;;;;;0.50;0.50;;;;;;;11.07;70.17;99780.09;4992238;28;20211;-83
2022/10/07 08:50:06;;;;;;;0.60;0.60;;;;;;;11.05;69.83;99787.59;4992227;28;20051;-83
2022/10/07 08:52:43;;;;;;;0.60;0.60;;;;;;;10.91;70.22;99780.69;4993880;28;20101;-84
2022/10/07 08:55:10;;;;;;;0.60;0.60;;;;;;;10.95;70.54;99786.50;4992710;28;20132;-83
2022/10/07 08:57:51;;;;;;;0.60;0.60;;;;;;;11.03;70.52;99780.75;4993480;28;20105;-84
2022/10/07 09:00:20;;;;;;;0.60;0.60;;;;;;;11.22;69.75;99781.56;4976583;28;20049;-84
2022/10/07 09:03:06;;;;;;;0.60;0.60;;;;;;;11.47;68.81;99790.31;4975994;28;20054;-84
2022/10/07 09:05:39;;;;;;;0.60;0.60;;;;;;;11.44;68.62;99782.69;4993250;28;20054;-84
2022/10/07 09:08:13;;;;;;;0.60;0.60;;;;;;;11.52;68.69;99797.75;4976711;28;20065;-82
2022/10/07 09:10:48;;;;;;;0.60;0.60;;;;;;;11.68;67.90;99788.13;4977250;28;20070;-84
2022/10/07 09:13:24;;;;;;;0.60;0.60;;;;;;;11.90;66.92;99791.13;4993482;28;20058;-84
2022/10/07 09:16:08;;;;;;;0.80;0.80;;;;;;;12.77;64.50;99787.63;4992247;28;20054;-84
2022/10/07 09:18:39;;;;;;;0.70;0.70;;;;;;;13.31;61.93;99817.97;4975902;28;20145;-84
2022/10/07 09:21:17;;;;;;;0.82;0.82;;;;;;;13.66;59.93;99800.72;4992087;28;20096;-84
2022/10/07 09:23:45;;;;;;;0.60;0.60;;;;;;;12.68;61.91;99797.19;4975467;28;20250;-84
2022/10/07 09:26:15;;;;;;;0.60;0.60;;;;;;;12.39;62.58;99807.97;4993892;28;20515;-82
2022/10/07 09:28:42;;;;;;;0.60;0.60;;;;;;;12.20;63.40;99790.19;4993052;28;20113;-84
2022/10/07 09:31:14;;;;;;;0.50;0.50;;;;;;;11.99;63.01;99814.06;4976206;28;20421;-85
2022/10/07 09:33:44;;;;;;;0.60;0.60;;;;;;;11.91;63.31;99790.88;4992621;28;20061;-84
2022/10/07 09:36:17;;;;;;;0.70;0.70;;;;;;;12.09;63.07;99792.66;4991728;28;20065;-84
2022/10/07 09:38:46;;;;;;;0.60;0.60;;;;;;;13.08;59.44;99780.94;4991836;28;20149;-84
2022/10/07 09:41:31;;;;;;;0.70;0.70;;;;;;;13.69;57.64;99796.69;4975801;28;20057;-83
2022/10/07 09:43:59;;;;;;;0.50;0.50;;;;;;;13.01;58.84;99810.03;4975741;28;20112;-83
2022/10/07 09:46:39;;;;;;;0.57;0.57;;;;;;;12.55;60.05;99800.97;4975112;28;20113;-84
2022/10/07 09:49:06;;;;;;;0.50;0.50;;;;;;;12.70;59.70;99795.06;4992796;28;20066;-84
2022/10/07 09:51:34;;;;;;;0.50;0.50;;;;;;;12.43;60.51;99813.72;4975354;28;20076;-85
2022/10/07 09:54:07;;;;;;;0.50;0.50;;;;;;;12.24;61.36;99799.50;4992415;28;20062;-84
2022/10/07 09:56:43;;;;;;;0.60;0.60;;;;;;;12.18;62.14;99801.28;4974668;28;20108;-84
2022/10/07 09:59:20;;;;;;;0.60;0.60;;;;;;;12.35;61.70;99804.06;4992686;28;20046;-85
2022/10/07 10:02:13;;;;;;;0.60;0.60;;;;;;;12.47;61.10;99807.59;4992898;28;20054;-83
2022/10/07 10:04:51;;;;;;;0.50;0.50;;;;;;;12.38;61.48;99816.31;4970882;28;20058;-85
2022/10/07 10:07:23;;;;;;;0.55;0.55;;;;;;;12.27;62.09;99807.94;4975003;28;20050;-85
2022/10/07 10:09:52;;;;;;;0.50;0.50;;;;;;;12.13;62.42;99810.09;4987682;28;20080;-83
2022/10/07 10:12:22;;;;;;;0.52;0.52;;;;;;;12.01;62.79;99798.44;4989034;28;20418;-85
2022/10/07 10:14:51;;;;;;;0.57;0.57;;;;;;;12.05;62.72;99802.31;4987549;28;20051;-85
2022/10/07 10:17:23;;;;;;;0.50;0.50;;;;;;;12.04;63.09;99816.88;4991677;28;20062;-88
2022/10/07 10:19:50;;;;;;;0.50;0.50;;;;;;;11.93;62.74;99806.91;4993848;28;20564;-88
2022/10/07 10:22:29;;;;;;;0.50;0.50;;;;;;;11.81;62.74;99795.22;4993058;28;20382;-89
2022/10/07 10:27:52;;;;;;;0.50;0.50;;;;;;;11.88;63.22;99814.88;4996026;28;20058;-90
2022/10/07 10:30:22;;;;;;;0.50;0.50;;;;;;;12.00;63.17;99815.72;4995381;28;20096;-87
2022/10/07 10:33:04;;;;;;;0.50;0.50;;;;;;;11.95;63.65;99812.91;4975644;28;20525;-85
2022/10/07 10:35:37;;;;;;;0.60;0.60;;;;;;;11.98;63.60;99800.78;4974050;28;20084;-84
2022/10/07 10:38:17;;;;;;;0.50;0.50;;;;;;;12.04;63.54;99797.13;4604943;28;10000556;-85
2022/10/07 10:40:47;;;;;;;0.60;0.60;;;;;;;12.14;63.42;99794.66;4969999;28;20078;-88
2022/10/07 10:43:24;;;;;;;0.88;0.88;;;;;;;12.71;61.86;99802.13;4989486;28;20055;-86
2022/10/07 10:46:25;;;;;;;0.50;0.50;;;;;;;12.43;61.56;99809.13;4988993;28;20088;-85
2022/10/07 10:49:15;;;;;;;0.50;0.50;;;;;;;12.35;62.31;99798.66;4970971;28;20145;-86
2022/10/07 10:51:58;;;;;;;0.70;0.70;;;;;;;12.79;61.56;99799.88;4990082;28;20054;-86
2022/10/07 10:54:47;;;;;;;0.60;0.60;;;;;;;12.80;61.38;99812.34;4954229;28;20150;-86
2022/10/07 10:57:41;;;;;;;0.60;0.60;;;;;;;12.90;60.87;99803.59;4982724;28;20445;-89
2022/10/07 11:00:12;;;;;;;0.60;0.60;;;;;;;12.81;61.45;99794.19;4973289;28;20077;-87
2022/10/07 11:02:51;;;;;;;0.60;0.60;;;;;;;12.99;60.41;99795.94;4991290;28;20047;-87
2022/10/07 11:05:30;;;;;;;0.60;0.60;;;;;;;13.34;59.37;99798.53;4972633;28;20457;-87
2022/10/07 11:08:06;;;;;;;0.60;0.60;;;;;;;13.19;59.20;99784.66;4987879;28;20492;-87
2022/10/07 11:10:36;;;;;;;0.57;0.57;;;;;;;13.08;59.69;99785.53;4974742;28;20500;-87
2022/10/07 11:13:14;;;;;;;0.60;0.60;;;;;;;13.31;58.63;99781.91;4975754;28;20109;-87
2022/10/07 11:16:16;;;;;;;0.60;0.60;;;;;;;13.30;58.83;99797.38;4991690;28;20042;-86
2022/10/07 11:18:57;;;;;;;0.60;0.60;;;;;;;13.15;58.97;99803.28;4959402;28;20112;-87
2022/10/07 11:21:29;;;;;;;0.52;0.52;;;;;;;13.14;59.17;99795.38;4991855;28;20077;-86
2022/10/07 11:24:16;;;;;;;0.50;0.50;;;;;;;13.22;59.25;99789.59;4976080;28;20057;-86
2022/10/07 11:26:50;;;;;;;0.60;0.60;;;;;;;13.74;57.04;99807.63;4992570;28;20065;-86
2022/10/07 11:29:27;;;;;;;0.80;0.80;;;;;;;14.64;55.04;99806.56;4970525;28;20058;-87
2022/10/07 11:32:07;;;;;;;0.50;0.50;;;;;;;13.91;56.08;99796.78;4972841;28;20508;-86
2022/10/07 11:34:42;;;;;;;0.60;0.60;;;;;;;13.69;56.51;99811.06;4991469;28;20051;-88
2022/10/07 11:37:28;;;;;;;0.60;0.60;;;;;;;13.68;56.90;99817.56;4987619;28;20505;-90
2022/10/07 11:39:56;;;;;;;0.60;0.60;;;;;;;13.50;57.01;99812.38;4988612;28;20054;-88
2022/10/07 11:42:27;;;;;;;0.70;0.70;;;;;;;13.66;56.83;99792.56;4994076;28;20049;-88
2022/10/07 11:45:01;;;;;;;0.50;0.50;;;;;;;13.74;56.18;99816.56;4960862;28;20046;-87
2022/10/07 11:47:37;;;;;;;0.50;0.50;;;;;;;13.37;57.34;99825.16;4995398;28;20477;-86
2022/10/07 11:50:11;;;;;;;0.68;0.68;;;;;;;13.52;57.66;99821.06;4962286;28;20128;-86
2022/10/07 11:52:42;;;;;;;;;;;;;;;13.84;55.57;99810.50;4979073;28;20054;-86
2022/10/07 11:55:23;;;;;;;0.50;0.50;;;;;;;13.09;57.66;99827.81;4998762;28;19933;-86
2022/10/07 11:57:54;;;;;;;0.50;0.50;;;;;;;12.93;58.59;99832.09;4982659;28;20077;-86
2022/10/07 12:00:24;;;;;;;0.50;0.50;;;;;;;12.95;58.99;99832.69;4981178;28;20054;-86
2022/10/07 12:02:53;;;;;;;0.40;0.40;;;;;;;12.71;59.39;99829.19;4972973;28;20057;-89
2022/10/07 12:05:36;;;;;;;0.50;0.50;;;;;;;12.45;60.64;99836.78;4999883;28;20042;-86
2022/10/07 12:08:33;;;;;;;0.40;0.40;;;;;;;12.30;61.35;99831.00;4962512;28;20063;-89